createdAt,value
2022-08-27T00:00:52.694Z,23.20
2022-08-27T00:03:23.275Z,23.10
2022-08-27T00:05:52.206Z,23.20
2022-08-27T00:08:21.335Z,23.20
2022-08-27T00:10:50.419Z,23.20
2022-08-27T00:13:19.525Z,23.20
2022-08-27T00:15:49.364Z,23.20
2022-08-27T00:18:22.435Z,23.20
2022-08-27T00:20:53.146Z,23.10
2022-08-27T00:23:22.073Z,23.10
2022-08-27T00:25:51.042Z,23.10
2022-08-27T00:28:20.412Z,23.10
2022-08-27T00:30:49.674Z,23.10
2022-08-27T00:33:18.863Z,23.10
2022-08-27T00:35:47.974Z,23.10
2022-08-27T00:38:19.821Z,23.10
2022-08-27T00:40:49.222Z,23.10
2022-08-27T00:43:23.207Z,23.10
2022-08-27T00:45:54.249Z,23.10
2022-08-27T00:48:25.513Z,23.10
2022-08-27T00:50:56.363Z,23.10
2022-08-27T00:53:29.749Z,23.10
2022-08-27T00:56:03.347Z,23.10
2022-08-27T00:58:35.374Z,23.10
2022-08-27T01:01:06.826Z,23.10
2022-08-27T01:03:36.063Z,23.10
2022-08-27T01:06:08.631Z,23.10
2022-08-27T01:08:42.898Z,23.10
2022-08-27T01:11:12.343Z,23.00
2022-08-27T01:13:59.858Z,23.00
2022-08-27T01:16:34.706Z,23.00
2022-08-27T01:19:07.234Z,23.00
2022-08-27T01:21:43.091Z,23.00
2022-08-27T01:24:26.079Z,23.00
2022-08-27T01:26:55.284Z,22.90
2022-08-27T01:29:24.620Z,22.90
2022-08-27T01:31:53.517Z,22.90
2022-08-27T01:34:22.774Z,22.90
2022-08-27T01:36:57.273Z,22.90
2022-08-27T01:39:28.632Z,22.90
2022-08-27T01:42:05.126Z,22.90
2022-08-27T01:44:48.597Z,22.90
2022-08-27T01:47:19.613Z,22.90
2022-08-27T01:49:49.587Z,22.90
2022-08-27T01:52:21.470Z,22.90
2022-08-27T01:54:53.151Z,22.90
2022-08-27T01:57:26.063Z,22.90
2022-08-27T01:59:56.942Z,22.90
2022-08-27T02:02:26.413Z,22.90
2022-08-27T02:04:55.543Z,22.90
2022-08-27T02:07:24.903Z,22.90
2022-08-27T02:09:55.286Z,22.90
2022-08-27T02:12:24.711Z,22.80
2022-08-27T02:14:53.828Z,22.80
2022-08-27T02:17:22.752Z,22.80
2022-08-27T02:19:52.327Z,22.80
2022-08-27T02:22:21.434Z,22.80
2022-08-27T02:24:51.610Z,22.80
2022-08-27T02:27:22.306Z,22.80
2022-08-27T02:29:51.745Z,22.80
2022-08-27T02:32:31.557Z,22.80
2022-08-27T02:35:01.816Z,22.80
2022-08-27T02:37:31.019Z,22.80
2022-08-27T02:40:01.630Z,22.80
2022-08-27T02:42:32.529Z,22.80
2022-08-27T02:45:01.450Z,22.80
2022-08-27T02:47:30.958Z,22.80
2022-08-27T02:50:00.229Z,22.80
2022-08-27T02:52:30.515Z,22.70
2022-08-27T02:55:00.313Z,22.70
2022-08-27T02:57:32.355Z,22.70
2022-08-27T03:00:06.963Z,22.70
2022-08-27T03:02:37.191Z,22.70
2022-08-27T03:05:07.628Z,22.70
2022-08-27T03:07:37.385Z,22.70
2022-08-27T03:10:08.114Z,22.70
2022-08-27T03:12:38.778Z,22.70
2022-08-27T03:15:10.699Z,22.70
2022-08-27T03:17:57.147Z,22.70
2022-08-27T03:20:27.090Z,22.70
2022-08-27T03:22:56.942Z,22.70
2022-08-27T03:25:26.595Z,22.70
2022-08-27T03:27:56.803Z,22.70
2022-08-27T03:30:26.587Z,22.70
2022-08-27T03:32:55.455Z,22.80
2022-08-27T03:35:24.738Z,22.80
2022-08-27T03:37:53.887Z,22.70
2022-08-27T03:40:23.158Z,22.70
2022-08-27T03:42:52.054Z,22.70
2022-08-27T03:45:22.463Z,22.70
2022-08-27T03:47:51.782Z,22.70
2022-08-27T03:50:21.325Z,22.70
2022-08-27T03:52:50.278Z,22.70
2022-08-27T03:55:19.325Z,22.70
2022-08-27T03:57:49.253Z,22.70
2022-08-27T04:00:18.450Z,22.70
2022-08-27T04:02:48.847Z,22.70
2022-08-27T04:05:18.502Z,22.70
2022-08-27T04:07:48.579Z,22.60
2022-08-27T04:10:19.906Z,22.60
2022-08-27T04:12:48.775Z,22.60
2022-08-27T04:15:17.597Z,22.60
2022-08-27T04:17:47.731Z,22.60
2022-08-27T04:20:34.687Z,22.60
2022-08-27T04:23:05.135Z,22.60
2022-08-27T04:25:33.976Z,22.70
2022-08-27T04:28:03.223Z,22.70
2022-08-27T04:30:33.011Z,22.70
2022-08-27T04:33:03.081Z,22.70
2022-08-27T04:35:32.009Z,22.70
2022-08-27T04:38:01.258Z,22.70
2022-08-27T04:40:44.599Z,22.70
2022-08-27T04:43:14.623Z,22.70
2022-08-27T04:45:49.505Z,22.70
2022-08-27T04:48:20.166Z,22.70
2022-08-27T04:50:49.201Z,22.70
2022-08-27T04:53:19.380Z,22.70
2022-08-27T04:55:51.415Z,22.70
2022-08-27T04:58:22.287Z,22.70
2022-08-27T05:00:53.631Z,22.70
2022-08-27T05:03:26.117Z,22.70
2022-08-27T05:06:01.295Z,22.70
2022-08-27T05:08:30.519Z,22.70
2022-08-27T05:11:00.403Z,22.70
2022-08-27T05:13:30.458Z,22.70
2022-08-27T05:16:01.514Z,22.70
2022-08-27T05:18:36.376Z,22.70
2022-08-27T05:21:19.253Z,22.70
2022-08-27T05:23:48.671Z,22.70
2022-08-27T05:26:18.132Z,22.70
2022-08-27T05:28:48.211Z,22.70
2022-08-27T05:31:19.391Z,22.70
2022-08-27T05:33:50.382Z,22.70
2022-08-27T05:36:22.110Z,22.70
2022-08-27T05:38:51.417Z,22.60
2022-08-27T05:41:25.092Z,22.60
2022-08-27T05:44:01.359Z,22.60
2022-08-27T05:46:30.937Z,22.60
2022-08-27T05:49:02.033Z,22.60
2022-08-27T05:51:33.582Z,22.60
2022-08-27T05:54:08.788Z,22.60
2022-08-27T05:56:39.664Z,22.60
2022-08-27T05:59:27.439Z,22.60
2022-08-27T06:01:58.892Z,22.60
2022-08-27T06:04:29.757Z,22.60
2022-08-27T06:06:58.914Z,22.60
2022-08-27T06:09:29.847Z,22.60
2022-08-27T06:12:00.659Z,22.60
2022-08-27T06:14:30.589Z,22.60
2022-08-27T06:17:01.290Z,22.60
2022-08-27T06:19:35.023Z,22.70
2022-08-27T06:22:10.126Z,22.70
2022-08-27T06:24:41.801Z,22.70
2022-08-27T06:27:14.816Z,22.60
2022-08-27T06:29:45.023Z,22.60
2022-08-27T06:32:16.609Z,22.70
2022-08-27T06:34:48.829Z,22.70
2022-08-27T06:37:18.950Z,22.60
2022-08-27T06:39:48.458Z,22.70
2022-08-27T06:42:18.116Z,22.70
2022-08-27T06:44:56.623Z,22.70
2022-08-27T06:47:27.356Z,22.70
2022-08-27T06:49:58.392Z,22.70
2022-08-27T06:52:28.457Z,22.70
2022-08-27T06:54:58.539Z,22.70
2022-08-27T06:57:28.643Z,22.70
2022-08-27T06:59:58.668Z,22.70
2022-08-27T07:02:29.943Z,22.80
2022-08-27T07:05:01.644Z,22.80
2022-08-27T07:07:36.468Z,22.80
2022-08-27T07:10:11.029Z,22.80
2022-08-27T07:12:40.090Z,22.80
2022-08-27T07:15:10.458Z,22.80
2022-08-27T07:17:41.058Z,22.80
2022-08-27T07:20:13.983Z,22.80
2022-08-27T07:22:44.093Z,22.90
2022-08-27T07:25:16.687Z,22.90
2022-08-27T07:27:46.764Z,22.90
2022-08-27T07:30:18.243Z,22.90
2022-08-27T07:32:48.078Z,22.90
2022-08-27T07:35:18.711Z,22.90
2022-08-27T07:37:48.162Z,23.00
2022-08-27T07:40:17.859Z,23.00
2022-08-27T07:43:04.653Z,23.00
2022-08-27T07:45:33.780Z,23.00
2022-08-27T07:48:03.206Z,23.00
2022-08-27T07:50:35.146Z,23.00
2022-08-27T07:53:04.296Z,23.00
2022-08-27T07:55:33.229Z,23.10
2022-08-27T07:58:02.156Z,23.10
2022-08-27T08:00:31.425Z,23.10
2022-08-27T08:03:01.622Z,23.10
2022-08-27T08:05:31.263Z,23.20
2022-08-27T08:08:01.712Z,23.20
2022-08-27T08:10:34.992Z,23.20
2022-08-27T08:13:05.406Z,23.20
2022-08-27T08:15:36.679Z,23.30
2022-08-27T08:18:06.758Z,23.30
2022-08-27T08:20:56.958Z,23.30
2022-08-27T08:23:26.658Z,23.30
2022-08-27T08:25:57.613Z,23.30
2022-08-27T08:28:27.631Z,23.30
2022-08-27T08:30:57.612Z,23.30
2022-08-27T08:33:28.502Z,23.30
2022-08-27T08:36:04.286Z,23.30
2022-08-27T08:38:35.385Z,23.30
2022-08-27T08:41:06.415Z,23.40
2022-08-27T08:43:38.180Z,23.40
2022-08-27T08:46:13.122Z,23.40
2022-08-27T08:48:46.616Z,23.50
2022-08-27T08:51:24.213Z,23.60
2022-08-27T08:53:58.300Z,23.70
2022-08-27T08:56:32.445Z,23.70
2022-08-27T08:59:08.659Z,23.80
2022-08-27T09:01:38.671Z,23.90
2022-08-27T09:04:11.812Z,23.90
2022-08-27T09:06:46.419Z,23.90
2022-08-27T09:09:23.903Z,23.90
2022-08-27T09:11:59.181Z,24.00
2022-08-27T09:14:36.730Z,24.00
2022-08-27T09:17:11.475Z,24.00
2022-08-27T09:19:42.771Z,24.00
2022-08-27T09:22:21.590Z,24.00
2022-08-27T09:25:03.237Z,24.00
2022-08-27T09:27:33.433Z,24.10
2022-08-27T09:30:07.858Z,24.10
2022-08-27T09:32:39.203Z,24.10
2022-08-27T09:35:12.982Z,24.20
2022-08-27T09:37:45.843Z,24.20
2022-08-27T09:40:23.695Z,24.40
2022-08-27T09:42:59.154Z,24.60
2022-08-27T09:45:33.981Z,24.70
2022-08-27T09:48:07.287Z,24.70
2022-08-27T09:50:47.240Z,24.80
2022-08-27T09:53:22.246Z,24.80
2022-08-27T09:55:57.986Z,24.80
2022-08-27T09:58:31.800Z,24.80
2022-08-27T10:01:04.501Z,24.80
2022-08-27T10:03:33.852Z,24.80
2022-08-27T10:06:03.198Z,24.80
2022-08-27T10:08:39.834Z,24.80
2022-08-27T10:11:18.238Z,24.80
2022-08-27T10:13:57.378Z,24.80
2022-08-27T10:16:55.011Z,24.90
2022-08-27T10:19:53.489Z,25.00
2022-08-27T10:22:39.414Z,25.00
2022-08-27T10:25:18.016Z,25.10
2022-08-27T10:27:57.657Z,25.20
2022-08-27T10:30:35.714Z,25.30
2022-08-27T10:33:12.984Z,25.40
2022-08-27T10:35:54.747Z,25.60
2022-08-27T10:38:42.414Z,25.70
2022-08-27T10:41:18.380Z,25.90
2022-08-27T10:44:20.962Z,26.00
2022-08-27T10:47:02.898Z,26.00
2022-08-27T10:49:40.909Z,26.00
2022-08-27T10:52:18.648Z,26.00
2022-08-27T10:54:53.977Z,26.00
2022-08-27T10:57:54.269Z,25.90
2022-08-27T11:00:34.116Z,25.90
2022-08-27T11:03:10.760Z,25.90
2022-08-27T11:05:47.497Z,25.90
2022-08-27T11:08:22.447Z,25.90
2022-08-27T11:10:55.513Z,26.00
2022-08-27T11:13:34.498Z,26.00
2022-08-27T11:16:13.131Z,26.10
2022-08-27T11:18:48.773Z,26.20
2022-08-27T11:21:25.412Z,26.30
2022-08-27T11:23:59.381Z,26.40
2022-08-27T11:26:33.940Z,26.50
2022-08-27T11:29:13.797Z,26.50
2022-08-27T11:31:51.204Z,26.60
2022-08-27T11:34:26.615Z,26.60
2022-08-27T11:37:13.709Z,26.70
2022-08-27T11:40:06.151Z,26.70
2022-08-27T11:42:41.190Z,26.70
2022-08-27T11:45:18.175Z,26.70
2022-08-27T11:47:57.609Z,26.70
2022-08-27T11:50:28.464Z,26.70
2022-08-27T11:53:00.969Z,26.70
2022-08-27T11:55:36.610Z,26.60
2022-08-27T11:58:12.179Z,26.60
2022-08-27T12:00:43.674Z,26.60
2022-08-27T12:03:29.837Z,26.60
2022-08-27T12:06:27.216Z,26.60
2022-08-27T12:09:13.927Z,26.50
2022-08-27T12:11:53.498Z,26.50
2022-08-27T12:14:47.178Z,26.50
2022-08-27T12:17:27.896Z,26.50
2022-08-27T12:20:11.336Z,26.40
2022-08-27T12:23:24.611Z,26.40
2022-08-27T12:25:59.024Z,26.50
2022-08-27T12:28:28.994Z,26.40
2022-08-27T12:30:58.881Z,26.40
2022-08-27T12:33:33.891Z,26.40
2022-08-27T12:36:13.247Z,26.40
2022-08-27T12:38:50.496Z,26.40
2022-08-27T12:41:29.275Z,26.40
2022-08-27T12:44:06.991Z,26.50
2022-08-27T12:46:39.750Z,26.50
2022-08-27T12:49:38.664Z,26.60
2022-08-27T12:52:07.949Z,26.60
2022-08-27T12:54:43.635Z,26.60
2022-08-27T12:57:25.010Z,26.60
2022-08-27T13:00:09.654Z,26.60
2022-08-27T13:03:00.515Z,26.60
2022-08-27T13:05:38.935Z,26.60
2022-08-27T13:08:21.996Z,26.60
2022-08-27T13:10:51.790Z,26.50
2022-08-27T13:13:23.118Z,26.50
2022-08-27T13:15:55.620Z,26.50
2022-08-27T13:18:29.480Z,26.40
2022-08-27T13:21:08.907Z,26.40
2022-08-27T13:23:46.056Z,26.40
2022-08-27T13:26:22.119Z,26.40
2022-08-27T13:28:52.721Z,26.50
2022-08-27T13:31:23.764Z,26.50
2022-08-27T13:33:58.486Z,26.60
2022-08-27T13:36:32.143Z,26.60
2022-08-27T13:39:05.856Z,26.60
2022-08-27T13:41:37.431Z,26.70
2022-08-27T13:44:14.226Z,26.70
2022-08-27T13:46:48.495Z,26.80
2022-08-27T13:49:23.369Z,26.90
2022-08-27T13:52:01.386Z,26.90
2022-08-27T13:54:32.834Z,27.00
2022-08-27T13:57:08.333Z,27.00
2022-08-27T13:59:42.136Z,27.00
2022-08-27T14:02:27.173Z,26.90
2022-08-27T14:05:11.209Z,26.90
2022-08-27T14:07:47.369Z,27.00
2022-08-27T14:10:34.149Z,27.00
2022-08-27T14:13:06.503Z,27.00
2022-08-27T14:15:38.370Z,27.00
2022-08-27T14:18:28.999Z,27.10
2022-08-27T14:21:07.840Z,27.10
2022-08-27T14:23:37.281Z,27.10
2022-08-27T14:26:07.663Z,27.10
2022-08-27T14:28:36.937Z,27.10
2022-08-27T14:31:06.508Z,27.10
2022-08-27T14:33:35.392Z,27.10
2022-08-27T14:36:05.217Z,27.10
2022-08-27T14:38:34.985Z,27.10
2022-08-27T14:41:06.793Z,27.20
2022-08-27T14:43:38.072Z,27.20
2022-08-27T14:46:12.403Z,27.10
2022-08-27T14:48:51.432Z,27.20
2022-08-27T14:51:26.398Z,27.20
2022-08-27T14:53:56.390Z,27.10
2022-08-27T14:56:27.178Z,27.10
2022-08-27T14:58:58.353Z,27.10
2022-08-27T15:01:28.131Z,27.10
2022-08-27T15:03:58.943Z,27.00
2022-08-27T15:06:28.516Z,27.00
2022-08-27T15:08:58.099Z,27.00
2022-08-27T15:11:31.270Z,26.90
2022-08-27T15:14:04.246Z,26.90
2022-08-27T15:16:36.737Z,26.90
2022-08-27T15:19:07.494Z,26.90
2022-08-27T15:21:37.746Z,26.80
2022-08-27T15:24:17.947Z,26.80
2022-08-27T15:26:48.160Z,26.80
2022-08-27T15:29:19.288Z,26.80
2022-08-27T15:31:48.446Z,26.80
2022-08-27T15:34:18.284Z,26.80
2022-08-27T15:36:47.568Z,26.70
2022-08-27T15:39:18.099Z,26.70
2022-08-27T15:42:05.803Z,26.80
2022-08-27T15:44:40.087Z,26.70
2022-08-27T15:47:09.082Z,26.70
2022-08-27T15:49:41.162Z,26.70
2022-08-27T15:52:13.235Z,26.70
2022-08-27T15:54:46.543Z,26.70
2022-08-27T15:57:15.568Z,26.70
2022-08-27T15:59:46.610Z,26.70
2022-08-27T16:02:18.912Z,26.70
2022-08-27T16:04:49.404Z,26.70
2022-08-27T16:07:21.134Z,26.70
2022-08-27T16:09:50.975Z,26.70
2022-08-27T16:12:27.244Z,26.70
2022-08-27T16:14:58.283Z,26.70
2022-08-27T16:17:27.952Z,26.60
2022-08-27T16:19:57.480Z,26.60
2022-08-27T16:22:28.410Z,26.50
2022-08-27T16:24:57.472Z,26.50
2022-08-27T16:27:26.586Z,26.50
2022-08-27T16:29:55.876Z,26.40
2022-08-27T16:32:28.847Z,26.40
2022-08-27T16:34:57.975Z,26.30
2022-08-27T16:37:27.483Z,26.20
2022-08-27T16:39:56.655Z,26.10
2022-08-27T16:42:26.683Z,26.00
2022-08-27T16:44:57.061Z,25.90
2022-08-27T16:47:27.975Z,25.80
2022-08-27T16:50:22.893Z,25.70
2022-08-27T16:52:56.112Z,25.60
2022-08-27T16:55:25.718Z,25.40
2022-08-27T16:57:55.570Z,25.40
2022-08-27T17:00:25.040Z,25.30
2022-08-27T17:02:55.748Z,25.20
2022-08-27T17:05:34.118Z,25.20
2022-08-27T17:08:05.095Z,25.10
2022-08-27T17:10:39.183Z,25.00
2022-08-27T17:13:09.665Z,24.90
2022-08-27T17:15:39.572Z,24.80
2022-08-27T17:18:09.966Z,24.80
2022-08-27T17:20:38.833Z,24.70
2022-08-27T17:23:12.781Z,24.70
2022-08-27T17:25:41.823Z,24.60
2022-08-27T17:28:11.478Z,24.60
2022-08-27T17:30:41.637Z,24.50
2022-08-27T17:33:20.497Z,24.50
2022-08-27T17:35:49.687Z,24.50
2022-08-27T17:38:19.020Z,24.40
2022-08-27T17:40:52.153Z,24.40
2022-08-27T17:43:21.845Z,24.40
2022-08-27T17:45:51.087Z,24.30
2022-08-27T17:48:26.434Z,24.30
2022-08-27T17:50:55.625Z,24.30
2022-08-27T17:53:24.661Z,24.30
2022-08-27T17:55:53.675Z,24.20
2022-08-27T17:58:22.879Z,24.20
2022-08-27T18:00:52.994Z,24.20
2022-08-27T18:03:24.004Z,24.20
2022-08-27T18:05:53.890Z,24.20
2022-08-27T18:08:23.171Z,24.20
2022-08-27T18:10:52.744Z,24.20
2022-08-27T18:13:21.679Z,24.20
2022-08-27T18:15:52.204Z,24.20
2022-08-27T18:18:22.891Z,24.10
2022-08-27T18:20:51.912Z,24.10
2022-08-27T18:23:22.802Z,24.10
2022-08-27T18:25:52.114Z,24.10
2022-08-27T18:28:22.288Z,24.10
2022-08-27T18:30:52.563Z,24.10
2022-08-27T18:33:23.505Z,24.10
2022-08-27T18:35:53.163Z,24.10
2022-08-27T18:38:22.281Z,24.10
2022-08-27T18:40:51.879Z,24.00
2022-08-27T18:43:23.192Z,24.00
2022-08-27T18:45:52.464Z,24.00
2022-08-27T18:48:24.167Z,24.00
2022-08-27T18:50:58.442Z,24.00
2022-08-27T18:53:30.715Z,24.00
2022-08-27T18:56:02.368Z,24.00
2022-08-27T18:58:31.599Z,23.90
2022-08-27T19:01:03.479Z,23.90
2022-08-27T19:03:35.739Z,23.90
2022-08-27T19:06:08.744Z,23.90
2022-08-27T19:08:38.450Z,23.90
2022-08-27T19:11:07.502Z,23.90
2022-08-27T19:13:37.328Z,23.90
2022-08-27T19:16:09.883Z,23.90
2022-08-27T19:18:44.765Z,23.90
2022-08-27T19:21:13.821Z,23.90
2022-08-27T19:23:44.082Z,23.80
2022-08-27T19:26:19.248Z,23.80
2022-08-27T19:28:49.349Z,23.80
2022-08-27T19:31:19.174Z,23.80
2022-08-27T19:33:50.328Z,23.80
2022-08-27T19:36:23.181Z,23.80
2022-08-27T19:38:55.539Z,23.80
2022-08-27T19:41:27.772Z,23.80
2022-08-27T19:43:58.603Z,23.80
2022-08-27T19:46:29.003Z,23.80
2022-08-27T19:48:59.734Z,23.80
2022-08-27T19:51:29.013Z,23.70
2022-08-27T19:53:58.206Z,23.70
2022-08-27T19:56:28.883Z,23.70
2022-08-27T19:59:07.657Z,23.70
2022-08-27T20:01:42.975Z,23.70
2022-08-27T20:04:13.762Z,23.70
2022-08-27T20:06:43.394Z,23.70
2022-08-27T20:09:16.076Z,23.70
2022-08-27T20:11:46.063Z,23.70
2022-08-27T20:14:15.244Z,23.70
2022-08-27T20:16:47.124Z,23.70
2022-08-27T20:19:20.040Z,23.70
2022-08-27T20:21:49.193Z,23.70
2022-08-27T20:24:19.712Z,23.70
2022-08-27T20:26:49.059Z,23.70
2022-08-27T20:29:32.096Z,23.60
2022-08-27T20:32:02.048Z,23.70
2022-08-27T20:34:35.116Z,23.70
2022-08-27T20:37:06.156Z,23.70
2022-08-27T20:39:36.263Z,23.60
2022-08-27T20:42:06.445Z,23.60
2022-08-27T20:44:35.472Z,23.60
2022-08-27T20:47:05.747Z,23.60
2022-08-27T20:49:37.859Z,23.60
2022-08-27T20:52:11.730Z,23.60
2022-08-27T20:54:42.260Z,23.60
2022-08-27T20:57:11.382Z,23.60
2022-08-27T20:59:59.515Z,23.60
2022-08-27T21:02:30.739Z,23.60
2022-08-27T21:05:07.484Z,23.60
2022-08-27T21:07:36.966Z,23.60
2022-08-27T21:10:07.908Z,23.50
2022-08-27T21:12:37.641Z,23.50
2022-08-27T21:15:09.962Z,23.50
2022-08-27T21:17:40.103Z,23.50
2022-08-27T21:20:12.302Z,23.50
2022-08-27T21:22:43.716Z,23.50
2022-08-27T21:25:14.586Z,23.50
2022-08-27T21:27:44.886Z,23.50
2022-08-27T21:30:14.586Z,23.50
2022-08-27T21:32:43.707Z,23.40
2022-08-27T21:35:14.342Z,23.40
2022-08-27T21:37:43.729Z,23.40
2022-08-27T21:40:13.107Z,23.40
2022-08-27T21:42:42.642Z,23.40
2022-08-27T21:45:12.281Z,23.40
2022-08-27T21:47:41.723Z,23.30
2022-08-27T21:50:11.781Z,23.30
2022-08-27T21:52:42.530Z,23.30
2022-08-27T21:55:12.261Z,23.30
2022-08-27T21:57:41.838Z,23.30
2022-08-27T22:00:22.891Z,23.20
2022-08-27T22:02:52.110Z,23.20
2022-08-27T22:05:21.290Z,23.20
2022-08-27T22:07:51.544Z,23.20
2022-08-27T22:10:21.857Z,23.20
2022-08-27T22:12:55.658Z,23.10
2022-08-27T22:15:29.825Z,23.10
2022-08-27T22:17:59.400Z,23.10
2022-08-27T22:20:28.741Z,23.10
2022-08-27T22:22:59.231Z,23.10
2022-08-27T22:25:29.457Z,23.10
2022-08-27T22:27:58.499Z,23.10
2022-08-27T22:30:28.563Z,23.00
2022-08-27T22:32:58.743Z,23.00
2022-08-27T22:35:28.007Z,23.00
2022-08-27T22:37:59.543Z,23.00
2022-08-27T22:40:30.584Z,23.00
2022-08-27T22:42:59.862Z,22.90
2022-08-27T22:45:30.094Z,22.90
2022-08-27T22:47:59.628Z,23.00
2022-08-27T22:50:28.654Z,22.90
2022-08-27T22:52:59.174Z,22.90
2022-08-27T22:55:30.220Z,22.90
2022-08-27T22:58:02.076Z,22.90
2022-08-27T23:00:34.453Z,22.90
2022-08-27T23:03:06.310Z,22.90
2022-08-27T23:05:40.537Z,22.90
2022-08-27T23:08:14.140Z,22.90
2022-08-27T23:10:44.831Z,22.90
2022-08-27T23:13:14.503Z,22.90
2022-08-27T23:15:43.818Z,22.90
2022-08-27T23:18:13.808Z,22.90
2022-08-27T23:20:43.928Z,22.90
2022-08-27T23:23:17.530Z,22.80
2022-08-27T23:26:07.002Z,22.80
2022-08-27T23:28:36.079Z,22.80
2022-08-27T23:31:05.610Z,22.80
2022-08-27T23:33:34.576Z,22.80
2022-08-27T23:36:05.019Z,22.80
2022-08-27T23:38:35.858Z,22.80
2022-08-27T23:41:07.715Z,22.80
2022-08-27T23:43:37.606Z,22.80
2022-08-27T23:46:07.081Z,22.80
2022-08-27T23:48:36.190Z,22.80
2022-08-27T23:51:05.583Z,22.80
2022-08-27T23:53:36.265Z,22.80
2022-08-27T23:56:05.851Z,22.80
2022-08-27T23:58:34.987Z,22.80
